Time;durP1;ratioP1;P1;durP2;ratioP2;P2;SDS_P1;SDS_P2;PMS_P1;PMS_P2;Temp;Humidity;BMP_temperature;BMP_pressure;BME280_temperature;BME280_humidity;BME280_pressure;Samples;Min_cycle;Max_cycle;Signal;HPM_P1;HPM_P2
2021/11/08 00:01:52;;;;;;;16.70;6.20;;;;;;;;;;5124708;28;20450;-75
2021/11/08 00:04:19;;;;;;;20.67;5.20;;;;;;;;;;5126282;28;20438;-75
2021/11/08 00:06:49;;;;;;;14.88;4.80;;;;;;;;;;5126132;27;20818;-75
2021/11/08 00:09:17;;;;;;;15.73;5.10;;;;;;;;;;5115262;27;20238;-75
2021/11/08 00:11:45;;;;;;;16.50;4.67;;;;;;;;;;5102344;27;20522;-75
2021/11/08 00:14:16;;;;;;;23.15;6.13;;;;;;;;;;5097926;28;20500;-75
2021/11/08 00:16:47;;;;;;;19.57;5.20;;;;;;;;;;5110915;28;20806;-75
2021/11/08 00:19:36;;;;;;;12.80;5.60;;;;;;;;;;5109137;28;20470;-75
2021/11/08 00:22:04;;;;;;;13.93;5.27;;;;;;;;;;5111202;28;20434;-75
2021/11/08 00:24:33;;;;;;;16.73;5.53;;;;;;;;;;5092791;28;20454;-75
2021/11/08 00:27:01;;;;;;;12.97;4.30;;;;;;;;;;5112616;28;20438;-75
2021/11/08 00:29:34;;;;;;;17.40;4.60;;;;;;;;;;5112693;28;20978;-75
2021/11/08 00:32:01;;;;;;;16.10;4.80;;;;;;;;;;5110975;28;20466;-75
2021/11/08 00:34:30;;;;;;;11.73;4.80;;;;;;;;;;5101091;28;20442;-75
2021/11/08 00:36:58;;;;;;;14.53;5.00;;;;;;;;;;5096707;28;20430;-75
2021/11/08 00:39:26;;;;;;;14.87;4.97;;;;;;;;;;5098680;28;20561;-75
2021/11/08 00:41:53;;;;;;;11.10;4.73;;;;;;;;;;5109910;28;20443;-75
2021/11/08 00:44:23;;;;;;;16.30;5.50;;;;;;;;;;5093759;28;20949;-75
2021/11/08 00:46:51;;;;;;;14.17;4.77;;;;;;;;;;5109066;28;20477;-75
2021/11/08 00:49:20;;;;;;;15.20;5.50;;;;;;;;;;5106377;28;20569;-75
2021/11/08 00:51:49;;;;;;;16.30;5.80;;;;;;;;;;5110946;28;20461;-76
2021/11/08 00:54:16;;;;;;;19.27;6.30;;;;;;;;;;5112753;28;20442;-74
2021/11/08 00:56:47;;;;;;;15.57;5.20;;;;;;;;;;5099954;28;20475;-74
2021/11/08 00:59:16;;;;;;;13.23;5.17;;;;;;;;;;5097254;28;20612;-75
2021/11/08 01:01:46;;;;;;;9.40;4.17;;;;;;;;;;5108500;28;20454;-75
2021/11/08 01:04:18;;;;;;;18.67;5.53;;;;;;;;;;5110513;28;20959;-74
2021/11/08 01:06:47;;;;;;;16.97;5.97;;;;;;;;;;5108183;28;20465;-74
2021/11/08 01:09:16;;;;;;;12.80;5.20;;;;;;;;;;5110654;27;20474;-75
2021/11/08 01:11:44;;;;;;;23.70;6.10;;;;;;;;;;5112039;28;20435;-75
2021/11/08 01:14:11;;;;;;;19.10;6.53;;;;;;;;;;5112863;28;20520;-74
2021/11/08 01:16:39;;;;;;;16.40;7.20;;;;;;;;;;5111247;28;20446;-75
2021/11/08 01:19:07;;;;;;;13.20;5.43;;;;;;;;;;5100298;28;20507;-76
2021/11/08 01:21:35;;;;;;;18.53;6.33;;;;;;;;;;5097031;28;20458;-75
2021/11/08 01:24:02;;;;;;;18.30;5.63;;;;;;;;;;5109532;28;20765;-75
2021/11/08 01:26:32;;;;;;;24.90;6.00;;;;;;;;;;5109638;28;20442;-75
2021/11/08 01:28:59;;;;;;;19.03;5.83;;;;;;;;;;5108701;28;20455;-74
2021/11/08 01:31:27;;;;;;;23.80;8.37;;;;;;;;;;5109812;28;20940;-74
2021/11/08 01:33:54;;;;;;;28.97;9.90;;;;;;;;;;5101062;28;21169;-74
2021/11/08 01:36:25;;;;;;;30.92;11.85;;;;;;;;;;5095855;28;20450;-74
2021/11/08 01:39:00;;;;;;;34.13;13.90;;;;;;;;;;5105050;28;20612;-75
2021/11/08 01:41:28;;;;;;;29.55;14.13;;;;;;;;;;5109864;27;20188;-74
2021/11/08 01:43:56;;;;;;;30.10;14.10;;;;;;;;;;5090313;28;20197;-74
2021/11/08 01:46:24;;;;;;;31.50;13.23;;;;;;;;;;5088063;28;20189;-74
2021/11/08 01:48:52;;;;;;;36.88;13.80;;;;;;;;;;5095654;27;20190;-74
2021/11/08 01:51:19;;;;;;;38.10;13.73;;;;;;;;;;5093454;28;20189;-74
2021/11/08 01:53:48;;;;;;;42.33;13.97;;;;;;;;;;5107674;28;20184;-74
2021/11/08 01:56:16;;;;;;;25.13;11.80;;;;;;;;;;5106485;28;20450;-74
2021/11/08 01:58:48;;;;;;;30.95;11.80;;;;;;;;;;5092543;28;20220;-74
2021/11/08 02:01:17;;;;;;;27.83;11.02;;;;;;;;;;5106928;27;20202;-75
2021/11/08 02:06:30;;;;;;;29.08;11.50;;;;;;;;;;5070978;28;20211;-74
2021/11/08 02:08:57;;;;;;;21.10;11.45;;;;;;;;;;5109244;28;20295;-74
2021/11/08 02:11:25;;;;;;;28.35;11.80;;;;;;;;;;5108478;28;20193;-75
2021/11/08 02:13:53;;;;;;;23.30;12.85;;;;;;;;;;5091846;28;20188;-75
2021/11/08 02:16:22;;;;;;;23.45;11.27;;;;;;;;;;5109231;28;20192;-75
2021/11/08 02:18:49;;;;;;;29.95;11.73;;;;;;;;;;5102507;28;20217;-74
2021/11/08 02:21:18;;;;;;;23.42;10.10;;;;;;;;;;5095027;28;20197;-74
2021/11/08 02:23:47;;;;;;;29.17;10.05;;;;;;;;;;5094416;28;20196;-74
2021/11/08 02:26:16;;;;;;;26.65;7.97;;;;;;;;;;5090591;28;20225;-75
2021/11/08 02:28:44;;;;;;;17.13;7.55;;;;;;;;;;5107437;28;20288;-74
2021/11/08 02:31:14;;;;;;;22.10;7.20;;;;;;;;;;5107067;28;20713;-74
2021/11/08 02:33:42;;;;;;;21.93;7.33;;;;;;;;;;5110312;28;20204;-74
2021/11/08 02:36:10;;;;;;;26.30;8.05;;;;;;;;;;5111090;28;20446;-75
2021/11/08 02:38:42;;;;;;;12.55;5.97;;;;;;;;;;5106825;27;20243;-73
2021/11/08 02:41:09;;;;;;;24.50;7.03;;;;;;;;;;5101203;28;20200;-74
2021/11/08 02:43:38;;;;;;;16.05;5.57;;;;;;;;;;5094986;28;20286;-74
2021/11/08 02:46:08;;;;;;;21.90;6.50;;;;;;;;;;5104499;28;20199;-74
2021/11/08 02:48:36;;;;;;;19.70;5.77;;;;;;;;;;5097509;28;20450;-74
2021/11/08 02:51:09;;;;;;;14.57;4.67;;;;;;;;;;5109636;28;20438;-74
2021/11/08 02:53:37;;;;;;;9.23;4.20;;;;;;;;;;5097856;28;20450;-75
2021/11/08 02:56:08;;;;;;;15.50;6.17;;;;;;;;;;5109408;28;20454;-74
2021/11/08 02:58:37;;;;;;;17.75;5.95;;;;;;;;;;5109180;28;20482;-74
2021/11/08 03:01:04;;;;;;;33.13;8.10;;;;;;;;;;5107075;28;20188;-74
2021/11/08 03:03:36;;;;;;;16.10;5.17;;;;;;;;;;5101513;28;20469;-74
2021/11/08 03:06:13;;;;;;;17.73;6.17;;;;;;;;;;5095088;28;20443;-75
2021/11/08 03:08:40;;;;;;;18.37;5.37;;;;;;;;;;5104935;28;20954;-74
2021/11/08 03:11:09;;;;;;;15.37;4.90;;;;;;;;;;5108515;28;20481;-75
2021/11/08 03:13:39;;;;;;;14.70;5.43;;;;;;;;;;5108553;28;20822;-75
2021/11/08 03:16:12;;;;;;;21.80;5.20;;;;;;;;;;5109248;28;20495;-74
2021/11/08 03:18:41;;;;;;;14.43;4.63;;;;;;;;;;5107740;28;20474;-74
2021/11/08 03:21:15;;;;;;;22.73;5.27;;;;;;;;;;5108619;28;20511;-74
2021/11/08 03:23:43;;;;;;;21.27;5.93;;;;;;;;;;5095538;28;20427;-74
2021/11/08 03:26:25;;;;;;;18.67;6.20;;;;;;;;;;5100070;28;20433;-75
2021/11/08 03:28:53;;;;;;;25.63;6.20;;;;;;;;;;5107085;28;20491;-74
2021/11/08 03:31:21;;;;;;;19.67;5.17;;;;;;;;;;5089787;28;20438;-74
2021/11/08 03:33:48;;;;;;;34.43;6.33;;;;;;;;;;5105367;28;21603;-74
2021/11/08 03:36:16;;;;;;;13.17;4.50;;;;;;;;;;5109395;28;20452;-74
2021/11/08 03:38:44;;;;;;;11.77;4.80;;;;;;;;;;5095579;28;20485;-74
2021/11/08 03:41:12;;;;;;;15.57;4.70;;;;;;;;;;5091586;28;20447;-74
2021/11/08 03:43:40;;;;;;;16.67;4.80;;;;;;;;;;5102554;28;20450;-75
2021/11/08 03:46:07;;;;;;;11.87;5.03;;;;;;;;;;5110681;28;20462;-74
2021/11/08 03:48:35;;;;;;;12.30;4.33;;;;;;;;;;5112180;27;20855;-74
2021/11/08 03:51:02;;;;;;;15.03;4.80;;;;;;;;;;5109057;28;20461;-74
2021/11/08 03:53:29;;;;;;;12.00;4.53;;;;;;;;;;5100227;28;20455;-74
2021/11/08 03:55:56;;;;;;;11.97;4.43;;;;;;;;;;5096251;28;20922;-75
2021/11/08 03:58:25;;;;;;;10.43;5.20;;;;;;;;;;5107642;28;20482;-75
2021/11/08 04:00:52;;;;;;;20.87;5.30;;;;;;;;;;5111270;28;20459;-75
2021/11/08 04:03:20;;;;;;;19.77;5.50;;;;;;;;;;5111852;28;20510;-75
2021/11/08 04:05:47;;;;;;;13.90;4.53;;;;;;;;;;5110200;28;20461;-74
2021/11/08 04:08:17;;;;;;;11.93;4.77;;;;;;;;;;5105798;28;20436;-74
2021/11/08 04:10:45;;;;;;;19.53;5.50;;;;;;;;;;5098800;28;20474;-74
2021/11/08 04:13:13;;;;;;;12.40;4.97;;;;;;;;;;5107923;28;20459;-74
2021/11/08 04:15:43;;;;;;;15.80;4.97;;;;;;;;;;5109938;28;20458;-74
2021/11/08 04:18:13;;;;;;;16.27;5.30;;;;;;;;;;5111711;28;20434;-74
2021/11/08 04:20:42;;;;;;;16.43;4.30;;;;;;;;;;5095388;28;20543;-75
2021/11/08 04:23:10;;;;;;;26.77;6.00;;;;;;;;;;5100161;28;20492;-75
2021/11/08 04:25:37;;;;;;;24.83;6.00;;;;;;;;;;5078831;28;20495;-75
2021/11/08 04:28:04;;;;;;;17.67;5.57;;;;;;;;;;5098795;28;20465;-75
2021/11/08 04:30:32;;;;;;;15.53;4.87;;;;;;;;;;5110670;28;20466;-75
2021/11/08 04:33:15;;;;;;;16.23;4.97;;;;;;;;;;5093262;28;20430;-75
2021/11/08 04:35:50;;;;;;;17.13;5.20;;;;;;;;;;5111196;28;20507;-74
2021/11/08 04:38:28;;;;;;;10.47;4.60;;;;;;;;;;5110478;28;20937;-74
2021/11/08 04:41:07;;;;;;;11.90;3.93;;;;;;;;;;5113851;28;20463;-75
2021/11/08 04:43:48;;;;;;;17.87;5.20;;;;;;;;;;5112292;27;20439;-75
2021/11/08 04:49:06;;;;;;;13.73;5.30;;;;;;;;;;5101282;28;20474;-75
2021/11/08 04:51:41;;;;;;;18.10;5.10;;;;;;;;;;5107949;28;20800;-75
2021/11/08 04:54:15;;;;;;;15.33;4.90;;;;;;;;;;5111158;28;20434;-75
2021/11/08 04:57:08;;;;;;;12.90;5.37;;;;;;;;;;5092985;28;20565;-74
2021/11/08 05:21:26;;;;;;;17.80;5.60;;;;;;;;;;5108248;28;20458;-74
2021/11/08 05:31:57;;;;;;;15.30;5.73;;;;;;;;;;5105652;28;20452;-75
2021/11/08 05:34:25;;;;;;;16.00;5.80;;;;;;;;;;5108652;28;20439;-75
2021/11/08 05:36:53;;;;;;;16.50;5.60;;;;;;;;;;5109015;28;20473;-75
2021/11/08 05:39:20;;;;;;;12.03;4.93;;;;;;;;;;5106559;28;20500;-75
2021/11/08 05:41:48;;;;;;;25.03;6.33;;;;;;;;;;5107201;28;20458;-75
2021/11/08 05:44:15;;;;;;;16.63;5.93;;;;;;;;;;5095887;28;20450;-75
2021/11/08 05:46:42;;;;;;;16.13;5.40;;;;;;;;;;5101697;28;20975;-75
2021/11/08 05:49:10;;;;;;;18.47;5.40;;;;;;;;;;5107467;28;20478;-75
2021/11/08 05:51:37;;;;;;;16.80;5.23;;;;;;;;;;5105560;28;20486;-74
2021/11/08 05:54:06;;;;;;;13.77;5.17;;;;;;;;;;5107661;27;20462;-76
2021/11/08 05:56:42;;;;;;;16.20;5.40;;;;;;;;;;5109590;28;20455;-74
2021/11/08 05:59:20;;;;;;;18.73;5.27;;;;;;;;;;5094944;28;20481;-73
2021/11/08 06:50:11;;;;;;;19.20;7.70;;;;;;;;;;5103072;28;20470;-75
2021/11/08 06:52:39;;;;;;;25.63;7.77;;;;;;;;;;5096610;28;20458;-75
2021/11/08 06:55:08;;;;;;;19.70;9.40;;;;;;;;;;5087954;28;20469;-76
2021/11/08 06:57:44;;;;;;;20.00;9.43;;;;;;;;;;5107081;28;20462;-75
2021/11/08 07:00:12;;;;;;;26.03;8.10;;;;;;;;;;5107655;28;20474;-74
2021/11/08 07:02:39;;;;;;;14.17;6.40;;;;;;;;;;5108531;28;20442;-75
2021/11/08 07:05:07;;;;;;;19.17;6.20;;;;;;;;;;5109388;28;20950;-75
2021/11/08 07:07:34;;;;;;;16.23;6.43;;;;;;;;;;5099045;28;20454;-74
2021/11/08 07:10:02;;;;;;;17.17;6.03;;;;;;;;;;5095357;28;20456;-76
2021/11/08 07:12:29;;;;;;;17.40;5.67;;;;;;;;;;5107812;28;20710;-77
2021/11/08 07:14:57;;;;;;;19.87;6.43;;;;;;;;;;5108442;28;20434;-77
2021/11/08 07:17:25;;;;;;;15.13;6.70;;;;;;;;;;5107526;28;20465;-77
2021/11/08 07:19:52;;;;;;;15.97;6.33;;;;;;;;;;5110130;28;20493;-74
2021/11/08 07:22:27;;;;;;;20.30;7.10;;;;;;;;;;5115603;28;20438;-75
2021/11/08 07:24:58;;;;;;;23.10;6.57;;;;;;;;;;5109502;28;20454;-75
2021/11/08 07:27:25;;;;;;;13.87;5.53;;;;;;;;;;5107338;28;20894;-75
2021/11/08 07:29:53;;;;;;;19.33;7.10;;;;;;;;;;5092543;28;20458;-76
2021/11/08 07:32:24;;;;;;;16.60;6.00;;;;;;;;;;5094403;28;20440;-74
2021/11/08 07:34:52;;;;;;;15.03;6.93;;;;;;;;;;5094693;28;20454;-76
2021/11/08 07:37:19;;;;;;;20.63;6.97;;;;;;;;;;5109670;28;20821;-75
2021/11/08 07:39:46;;;;;;;16.23;6.63;;;;;;;;;;5110025;28;20477;-75
2021/11/08 07:42:14;;;;;;;24.73;7.40;;;;;;;;;;5110261;28;20454;-75
2021/11/08 07:44:41;;;;;;;19.27;5.63;;;;;;;;;;5104421;28;20450;-74
2021/11/08 07:47:08;;;;;;;15.13;6.53;;;;;;;;;;5079160;28;20454;-75
2021/11/08 07:49:37;;;;;;;14.07;6.13;;;;;;;;;;5078825;28;20475;-74
2021/11/08 07:52:05;;;;;;;24.53;8.17;;;;;;;;;;5103523;28;20431;-76
2021/11/08 07:54:32;;;;;;;15.90;6.33;;;;;;;;;;5093031;28;20434;-76
2021/11/08 07:57:00;;;;;;;24.90;7.20;;;;;;;;;;5110905;28;20830;-75
2021/11/08 07:59:27;;;;;;;14.30;7.07;;;;;;;;;;5085813;28;20494;-76
2021/11/08 08:01:54;;;;;;;19.20;7.30;;;;;;;;;;5097647;28;20481;-76
2021/11/08 08:04:21;;;;;;;17.60;6.80;;;;;;;;;;5088962;28;20438;-75
2021/11/08 08:06:50;;;;;;;17.20;6.93;;;;;;;;;;5111688;28;20468;-75
2021/11/08 08:09:17;;;;;;;23.50;7.87;;;;;;;;;;5099993;28;20551;-77
2021/11/08 08:11:45;;;;;;;14.70;6.23;;;;;;;;;;5098557;28;20441;-78
2021/11/08 08:14:12;;;;;;;16.70;8.00;;;;;;;;;;5090154;28;20473;-76
2021/11/08 08:16:40;;;;;;;18.37;6.53;;;;;;;;;;5078411;28;20578;-76
2021/11/08 08:19:07;;;;;;;24.17;7.37;;;;;;;;;;5093071;28;20461;-76
2021/11/08 08:21:34;;;;;;;16.80;6.90;;;;;;;;;;5102625;28;20460;-75
2021/11/08 08:24:04;;;;;;;24.03;8.50;;;;;;;;;;5107415;28;20458;-76
2021/11/08 08:26:32;;;;;;;23.20;8.50;;;;;;;;;;5082930;28;20442;-76
2021/11/08 08:29:03;;;;;;;16.10;7.63;;;;;;;;;;5100444;28;20554;-76
2021/11/08 08:31:30;;;;;;;21.80;9.77;;;;;;;;;;5096265;28;20484;-76
2021/11/08 08:33:58;;;;;;;17.60;9.03;;;;;;;;;;5089881;28;20447;-76
2021/11/08 08:36:25;;;;;;;16.17;7.40;;;;;;;;;;5090801;28;20845;-76
2021/11/08 08:38:52;;;;;;;20.27;8.70;;;;;;;;;;5108664;28;20512;-77
2021/11/08 08:41:21;;;;;;;20.33;8.20;;;;;;;;;;5108093;28;21063;-75
2021/11/08 08:43:48;;;;;;;21.90;7.70;;;;;;;;;;5108202;28;20438;-75
2021/11/08 08:46:15;;;;;;;18.40;6.87;;;;;;;;;;5096613;28;20450;-75
2021/11/08 08:48:43;;;;;;;17.50;8.03;;;;;;;;;;5102353;28;20461;-76
2021/11/08 08:51:11;;;;;;;23.83;6.93;;;;;;;;;;5093913;28;20459;-75
2021/11/08 08:53:38;;;;;;;17.07;6.37;;;;;;;;;;5107490;28;20957;-77
2021/11/08 08:56:06;;;;;;;12.43;6.63;;;;;;;;;;5103779;28;20985;-76
2021/11/08 08:58:34;;;;;;;18.30;6.53;;;;;;;;;;5107305;28;20488;-76
2021/11/08 09:01:01;;;;;;;15.17;6.30;;;;;;;;;;5095968;27;20476;-76
2021/11/08 09:03:29;;;;;;;17.57;6.10;;;;;;;;;;5094260;28;20430;-76
2021/11/08 09:05:56;;;;;;;13.60;5.90;;;;;;;;;;5110923;28;20438;-77
2021/11/08 09:08:23;;;;;;;14.50;6.13;;;;;;;;;;5104720;28;20434;-77
2021/11/08 09:10:51;;;;;;;18.50;6.00;;;;;;;;;;5108320;28;20559;-77
2021/11/08 09:13:18;;;;;;;14.77;5.77;;;;;;;;;;5097518;28;20801;-76
2021/11/08 09:15:47;;;;;;;22.20;6.13;;;;;;;;;;5090871;28;20431;-75
2021/11/08 09:18:16;;;;;;;20.17;6.57;;;;;;;;;;5107790;28;20848;-76
2021/11/08 09:20:44;;;;;;;18.63;7.30;;;;;;;;;;5093274;28;20486;-76
2021/11/08 09:23:12;;;;;;;18.00;8.93;;;;;;;;;;5097390;28;20465;-75
2021/11/08 09:25:39;;;;;;;30.00;7.40;;;;;;;;;;5101148;28;20895;-76
2021/11/08 09:28:07;;;;;;;22.03;7.00;;;;;;;;;;5110813;28;20923;-76
2021/11/08 09:30:36;;;;;;;23.10;8.20;;;;;;;;;;5108242;28;20506;-77
2021/11/08 09:33:05;;;;;;;18.50;6.90;;;;;;;;;;5110247;28;20434;-76
2021/11/08 09:35:36;;;;;;;18.73;7.23;;;;;;;;;;5096635;28;20959;-77
2021/11/08 09:38:05;;;;;;;16.90;6.67;;;;;;;;;;5112742;28;20467;-76
2021/11/08 09:40:33;;;;;;;19.90;7.40;;;;;;;;;;5091202;28;20486;-75
2021/11/08 09:43:00;;;;;;;15.30;6.10;;;;;;;;;;5108235;28;20458;-75
2021/11/08 09:45:28;;;;;;;19.63;6.60;;;;;;;;;;5098659;28;20948;-75
2021/11/08 09:47:55;;;;;;;12.60;5.27;;;;;;;;;;5096172;28;20445;-75
2021/11/08 09:50:25;;;;;;;19.17;5.83;;;;;;;;;;5107443;28;20484;-75
2021/11/08 09:52:53;;;;;;;11.73;5.20;;;;;;;;;;5108164;28;21096;-77
2021/11/08 09:55:20;;;;;;;13.40;6.23;;;;;;;;;;5110106;28;20790;-76
2021/11/08 09:57:48;;;;;;;19.83;6.83;;;;;;;;;;5092433;28;20479;-74
2021/11/08 10:00:18;;;;;;;23.23;7.60;;;;;;;;;;5086631;28;20941;-76
2021/11/08 10:02:55;;;;;;;14.63;5.97;;;;;;;;;;5074850;28;20444;-75
2021/11/08 10:05:25;;;;;;;24.20;9.37;;;;;;;;;;5070379;28;20444;-76
2021/11/08 10:07:53;;;;;;;16.80;7.60;;;;;;;;;;5070251;28;20463;-75
2021/11/08 10:10:20;;;;;;;16.57;7.67;;;;;;;;;;5088609;28;20480;-76
2021/11/08 10:12:49;;;;;;;16.17;7.20;;;;;;;;;;5089244;28;20454;-76
2021/11/08 10:15:18;;;;;;;24.90;7.60;;;;;;;;;;5087772;28;20554;-75
2021/11/08 10:17:46;;;;;;;21.63;6.53;;;;;;;;;;5071573;28;20464;-75
2021/11/08 10:20:18;;;;;;;14.07;6.20;;;;;;;;;;5081270;28;20475;-74
2021/11/08 10:22:47;;;;;;;13.87;5.90;;;;;;;;;;5085116;28;20455;-76
2021/11/08 10:25:17;;;;;;;20.30;6.27;;;;;;;;;;5088355;28;20429;-77
2021/11/08 10:27:44;;;;;;;33.57;7.97;;;;;;;;;;5088481;28;20447;-76
2021/11/08 10:30:27;;;;;;;14.97;5.93;;;;;;;;;;5087742;28;20472;-75
2021/11/08 10:33:09;;;;;;;15.90;6.17;;;;;;;;;;5074009;28;20951;-76
2021/11/08 10:35:37;;;;;;;19.43;7.97;;;;;;;;;;5083136;28;20447;-76
2021/11/08 10:38:07;;;;;;;17.67;6.33;;;;;;;;;;5084542;28;20458;-76
2021/11/08 10:40:40;;;;;;;24.60;7.90;;;;;;;;;;5086483;28;20489;-76
2021/11/08 10:43:07;;;;;;;22.97;8.90;;;;;;;;;;5086195;28;20550;-74
2021/11/08 10:45:34;;;;;;;16.93;7.50;;;;;;;;;;5074518;28;20466;-76
2021/11/08 10:48:02;;;;;;;25.60;6.67;;;;;;;;;;5074762;28;20452;-77
2021/11/08 10:50:39;;;;;;;18.47;7.47;;;;;;;;;;5083692;28;20475;-74
2021/11/08 10:53:07;;;;;;;24.67;7.10;;;;;;;;;;5085819;28;20481;-76
2021/11/08 10:55:35;;;;;;;17.40;6.30;;;;;;;;;;5087241;28;20966;-74
2021/11/08 10:58:09;;;;;;;18.10;5.93;;;;;;;;;;5089497;28;20487;-74
2021/11/08 11:00:47;;;;;;;15.77;5.83;;;;;;;;;;5080538;28;20486;-76
2021/11/08 11:03:15;;;;;;;26.57;7.40;;;;;;;;;;5076590;28;20433;-76
2021/11/08 11:05:43;;;;;;;12.73;5.20;;;;;;;;;;5087526;28;21019;-75
2021/11/08 11:08:14;;;;;;;9.83;5.10;;;;;;;;;;5107175;28;20771;-76
2021/11/08 11:10:43;;;;;;;10.00;6.00;;;;;;;;;;5109075;28;20451;-75
2021/11/08 11:13:17;;;;;;;20.97;6.23;;;;;;;;;;5107442;28;20459;-77
2021/11/08 11:15:44;;;;;;;17.13;5.07;;;;;;;;;;5097120;28;20978;-76
2021/11/08 11:18:13;;;;;;;15.93;5.57;;;;;;;;;;5105781;28;20451;-76
2021/11/08 11:20:44;;;;;;;15.00;5.53;;;;;;;;;;5105488;28;20834;-75
2021/11/08 11:23:15;;;;;;;19.57;6.00;;;;;;;;;;5091059;28;20447;-75
2021/11/08 11:25:49;;;;;;;19.57;5.60;;;;;;;;;;5094874;28;20484;-77
2021/11/08 11:28:23;;;;;;;20.30;6.00;;;;;;;;;;5105858;28;20443;-76
2021/11/08 11:30:50;;;;;;;15.80;5.00;;;;;;;;;;5088897;28;20459;-76
2021/11/08 11:33:21;;;;;;;13.73;5.20;;;;;;;;;;5091012;28;20438;-76
2021/11/08 11:35:50;;;;;;;18.27;5.73;;;;;;;;;;5101497;28;20796;-76
2021/11/08 11:38:21;;;;;;;14.57;6.00;;;;;;;;;;5096774;28;20451;-75
2021/11/08 11:40:54;;;;;;;19.10;6.00;;;;;;;;;;5092549;28;20478;-75
2021/11/08 11:43:27;;;;;;;15.17;5.00;;;;;;;;;;5092057;28;20433;-75
2021/11/08 11:45:55;;;;;;;16.80;5.70;;;;;;;;;;5101713;28;20456;-75
2021/11/08 11:48:25;;;;;;;19.30;7.20;;;;;;;;;;5094100;28;20454;-76
2021/11/08 11:50:52;;;;;;;12.60;5.27;;;;;;;;;;5086483;28;20839;-75
2021/11/08 11:53:21;;;;;;;14.40;5.10;;;;;;;;;;5108487;28;20491;-76
2021/11/08 11:55:48;;;;;;;17.00;5.50;;;;;;;;;;5108454;28;20435;-77
2021/11/08 11:58:17;;;;;;;20.90;5.20;;;;;;;;;;5106525;28;20462;-77
2021/11/08 12:00:45;;;;;;;18.80;5.47;;;;;;;;;;5098899;28;20964;-76
2021/11/08 12:03:12;;;;;;;22.30;6.10;;;;;;;;;;5095983;28;20806;-75
2021/11/08 12:05:44;;;;;;;20.17;5.47;;;;;;;;;;5108142;28;20468;-75
2021/11/08 12:08:11;;;;;;;16.53;5.27;;;;;;;;;;5109741;28;20839;-75
2021/11/08 12:10:46;;;;;;;16.00;5.83;;;;;;;;;;5111466;28;21225;-76
2021/11/08 12:13:14;;;;;;;16.33;5.20;;;;;;;;;;5104009;28;20452;-75
2021/11/08 12:15:42;;;;;;;16.53;5.30;;;;;;;;;;5100887;28;20944;-76
2021/11/08 12:18:12;;;;;;;11.67;5.30;;;;;;;;;;5100537;28;20943;-75
2021/11/08 12:20:42;;;;;;;17.03;4.90;;;;;;;;;;5111076;28;20566;-76
2021/11/08 12:23:13;;;;;;;13.67;4.60;;;;;;;;;;5107871;28;20506;-75
2021/11/08 12:25:41;;;;;;;12.90;5.37;;;;;;;;;;5103416;28;21041;-75
2021/11/08 12:28:11;;;;;;;15.50;5.03;;;;;;;;;;5109253;28;20463;-76
2021/11/08 12:30:39;;;;;;;21.63;5.37;;;;;;;;;;5103648;28;20992;-75
2021/11/08 12:33:08;;;;;;;18.30;5.97;;;;;;;;;;5094594;28;20940;-76
2021/11/08 12:35:36;;;;;;;17.13;5.47;;;;;;;;;;5108153;28;20466;-76
2021/11/08 12:38:15;;;;;;;18.83;5.30;;;;;;;;;;5110387;28;20439;-77
2021/11/08 12:40:42;;;;;;;14.83;4.70;;;;;;;;;;5108762;28;20465;-77
2021/11/08 12:43:11;;;;;;;18.13;5.17;;;;;;;;;;5109573;28;21152;-76
2021/11/08 12:45:39;;;;;;;18.87;5.40;;;;;;;;;;5092335;28;20446;-76
2021/11/08 12:48:07;;;;;;;13.57;4.73;;;;;;;;;;5098245;28;20533;-76
2021/11/08 12:50:37;;;;;;;19.40;5.47;;;;;;;;;;5092741;28;20467;-76
2021/11/08 12:53:05;;;;;;;14.57;5.57;;;;;;;;;;5106079;28;20435;-76
2021/11/08 12:55:41;;;;;;;11.17;5.10;;;;;;;;;;5110651;28;20443;-76
2021/11/08 12:58:08;;;;;;;14.10;6.43;;;;;;;;;;5091922;28;20870;-76
2021/11/08 13:00:40;;;;;;;12.77;5.70;;;;;;;;;;5104169;28;20514;-75
2021/11/08 13:03:14;;;;;;;16.37;5.40;;;;;;;;;;5097326;28;20435;-74
2021/11/08 13:05:42;;;;;;;11.77;5.07;;;;;;;;;;5098683;28;20482;-76
2021/11/08 13:08:18;;;;;;;21.03;5.63;;;;;;;;;;5076809;28;20419;-77
2021/11/08 13:10:55;;;;;;;16.23;5.17;;;;;;;;;;5108383;28;20821;-75
2021/11/08 13:13:23;;;;;;;17.17;4.47;;;;;;;;;;5090509;28;20435;-77
2021/11/08 13:15:52;;;;;;;22.13;4.40;;;;;;;;;;5104731;28;20447;-76
2021/11/08 13:18:20;;;;;;;15.63;4.77;;;;;;;;;;5108427;28;20838;-77
2021/11/08 13:20:50;;;;;;;11.77;4.73;;;;;;;;;;5091717;28;20459;-78
2021/11/08 13:23:18;;;;;;;16.93;5.60;;;;;;;;;;5105569;28;20439;-77
2021/11/08 13:25:47;;;;;;;18.90;5.43;;;;;;;;;;5093862;28;20455;-76
2021/11/08 13:28:15;;;;;;;9.73;4.63;;;;;;;;;;5098434;28;20898;-77
2021/11/08 13:30:44;;;;;;;19.40;4.77;;;;;;;;;;5085656;28;20481;-77
2021/11/08 13:33:13;;;;;;;19.10;4.87;;;;;;;;;;5098296;28;20462;-76
2021/11/08 13:35:42;;;;;;;13.63;4.67;;;;;;;;;;5103873;28;20960;-77
2021/11/08 13:38:10;;;;;;;13.13;4.90;;;;;;;;;;5080000;28;20459;-77
2021/11/08 13:40:39;;;;;;;12.63;4.73;;;;;;;;;;5090099;28;20469;-76
2021/11/08 13:43:06;;;;;;;20.27;5.60;;;;;;;;;;5107578;28;20497;-77
2021/11/08 13:45:43;;;;;;;16.63;5.27;;;;;;;;;;5107558;28;20442;-77
2021/11/08 13:48:21;;;;;;;19.63;5.60;;;;;;;;;;5093725;28;20434;-77
2021/11/08 13:50:48;;;;;;;17.77;4.60;;;;;;;;;;5084206;28;20454;-77
2021/11/08 13:53:17;;;;;;;13.17;5.40;;;;;;;;;;5107535;28;20439;-77
2021/11/08 13:55:44;;;;;;;15.23;4.57;;;;;;;;;;5089867;28;20439;-79
2021/11/08 13:58:14;;;;;;;9.13;3.90;;;;;;;;;;5107948;28;20505;-76
2021/11/08 14:00:42;;;;;;;18.30;4.73;;;;;;;;;;5107664;28;20470;-76
2021/11/08 14:03:13;;;;;;;13.97;5.13;;;;;;;;;;5107574;28;20478;-78
2021/11/08 14:05:50;;;;;;;7.43;4.30;;;;;;;;;;5088479;28;20474;-76
2021/11/08 14:08:24;;;;;;;17.33;5.07;;;;;;;;;;5089476;28;20473;-77
2021/11/08 14:10:53;;;;;;;14.10;5.17;;;;;;;;;;5094162;28;20450;-76
2021/11/08 14:13:21;;;;;;;14.27;4.67;;;;;;;;;;5102480;28;20435;-79
2021/11/08 14:16:00;;;;;;;13.93;4.80;;;;;;;;;;5091141;28;20438;-77
2021/11/08 14:24:14;;;;;;;13.17;4.73;;;;;;;;;;4670986;28;20578;-80
2021/11/08 14:26:42;;;;;;;9.40;3.93;;;;;;;;;;4999507;28;21023;-77
2021/11/08 14:29:10;;;;;;;13.70;3.83;;;;;;;;;;5018510;28;20802;-81
2021/11/08 14:31:37;;;;;;;9.03;4.10;;;;;;;;;;5010177;28;20459;-80
2021/11/08 14:34:08;;;;;;;14.63;3.77;;;;;;;;;;5011489;28;20527;-79
2021/11/08 14:36:40;;;;;;;10.13;3.80;;;;;;;;;;5012346;28;20431;-80
2021/11/08 14:39:11;;;;;;;14.63;4.33;;;;;;;;;;5011654;28;21231;-80
2021/11/08 14:41:50;;;;;;;13.53;3.63;;;;;;;;;;5013920;28;20486;-81
2021/11/08 14:44:17;;;;;;;13.17;3.50;;;;;;;;;;5045743;28;20469;-79
2021/11/08 14:46:45;;;;;;;10.97;3.33;;;;;;;;;;5013825;28;20495;-79
2021/11/08 14:49:16;;;;;;;12.00;4.60;;;;;;;;;;5007413;28;20955;-79
2021/11/08 14:51:44;;;;;;;7.33;3.77;;;;;;;;;;5008213;28;20463;-79
2021/11/08 14:54:11;;;;;;;12.63;4.40;;;;;;;;;;5011407;28;20447;-78
2021/11/08 14:56:42;;;;;;;14.77;4.80;;;;;;;;;;5011539;28;20474;-80
2021/11/08 14:59:10;;;;;;;12.67;5.00;;;;;;;;;;5011691;28;20450;-81
2021/11/08 15:01:39;;;;;;;10.40;4.33;;;;;;;;;;5010346;28;20497;-81
2021/11/08 15:04:08;;;;;;;8.60;3.70;;;;;;;;;;5013924;28;20810;-79
2021/11/08 15:06:36;;;;;;;12.40;4.80;;;;;;;;;;5014214;28;20998;-80
2021/11/08 15:09:06;;;;;;;9.13;3.90;;;;;;;;;;5006425;28;20431;-78
2021/11/08 15:11:35;;;;;;;13.83;4.10;;;;;;;;;;5006162;28;20983;-79
2021/11/08 15:14:05;;;;;;;11.40;4.00;;;;;;;;;;5011522;28;20790;-79
2021/11/08 15:16:43;;;;;;;9.87;3.73;;;;;;;;;;5010128;28;20443;-79
2021/11/08 15:19:10;;;;;;;16.43;4.90;;;;;;;;;;5012572;28;20447;-80
2021/11/08 15:21:38;;;;;;;11.23;3.70;;;;;;;;;;5011189;28;20493;-79
2021/11/08 15:24:07;;;;;;;13.63;3.57;;;;;;;;;;5008636;28;20475;-79
2021/11/08 15:26:35;;;;;;;14.77;4.20;;;;;;;;;;5007401;28;20435;-80
2021/11/08 15:29:08;;;;;;;10.40;3.60;;;;;;;;;;5010770;28;20435;-79
2021/11/08 15:31:36;;;;;;;11.43;4.47;;;;;;;;;;5011119;28;20521;-80
2021/11/08 15:34:07;;;;;;;7.73;3.67;;;;;;;;;;5011302;28;20454;-79
2021/11/08 15:36:36;;;;;;;13.07;5.20;;;;;;;;;;5012067;28;20865;-80
2021/11/08 15:39:05;;;;;;;13.83;3.93;;;;;;;;;;5012690;28;20459;-80
2021/11/08 15:41:33;;;;;;;9.50;3.93;;;;;;;;;;5017435;28;20520;-79
2021/11/08 15:44:00;;;;;;;7.40;3.37;;;;;;;;;;5049006;28;20936;-79
2021/11/08 15:46:28;;;;;;;8.50;3.93;;;;;;;;;;5012140;28;20427;-80
2021/11/08 15:48:56;;;;;;;13.50;5.30;;;;;;;;;;5009867;28;20522;-79
2021/11/08 15:51:24;;;;;;;9.23;3.50;;;;;;;;;;5013060;28;20470;-81
2021/11/08 15:53:52;;;;;;;6.77;3.80;;;;;;;;;;5013719;28;20443;-80
2021/11/08 15:56:20;;;;;;;7.70;3.43;;;;;;;;;;5013848;28;20851;-80
2021/11/08 15:58:47;;;;;;;10.90;4.33;;;;;;;;;;5015000;28;20442;-79
2021/11/08 16:01:16;;;;;;;11.00;4.37;;;;;;;;;;5015070;28;20478;-79
2021/11/08 16:03:43;;;;;;;15.77;4.40;;;;;;;;;;5008828;28;20510;-81
2021/11/08 16:06:12;;;;;;;9.80;3.30;;;;;;;;;;5011043;28;20935;-81
2021/11/08 16:08:40;;;;;;;13.23;4.00;;;;;;;;;;5014783;28;20442;-82
2021/11/08 16:11:07;;;;;;;23.27;4.83;;;;;;;;;;5014799;28;20469;-81
2021/11/08 16:13:35;;;;;;;12.60;4.87;;;;;;;;;;5014850;28;20865;-80